createdAt,value
2023-05-01T00:02:02.718Z,2.73
2023-05-01T00:07:06.760Z,2.62
2023-05-01T00:12:12.279Z,2.44
2023-05-01T00:17:17.161Z,2.26
2023-05-01T00:22:21.990Z,2.12
2023-05-01T00:27:27.839Z,1.97
2023-05-01T00:32:33.213Z,1.79
2023-05-01T00:37:38.018Z,1.74
2023-05-01T00:42:43.359Z,1.75
2023-05-01T00:47:49.078Z,1.90
2023-05-01T00:52:54.205Z,2.19
2023-05-01T00:58:01.361Z,2.20
2023-05-01T01:03:06.380Z,2.14
2023-05-01T01:08:58.104Z,2.08
2023-05-01T01:14:18.183Z,1.98
2023-05-01T01:20:11.454Z,1.87
2023-05-01T01:25:50.779Z,1.66
2023-05-01T01:31:29.335Z,1.55
2023-05-01T01:36:39.973Z,1.48
2023-05-01T01:41:51.212Z,1.45
2023-05-01T01:46:55.947Z,1.54
2023-05-01T01:52:02.809Z,1.59
2023-05-01T01:57:14.460Z,1.63
2023-05-01T02:02:22.065Z,1.61
2023-05-01T02:07:27.444Z,1.64
2023-05-01T02:12:33.009Z,1.66
2023-05-01T02:17:38.980Z,1.50
2023-05-01T02:22:47.685Z,1.36
2023-05-01T02:28:08.689Z,1.29
2023-05-01T02:33:13.340Z,1.36
2023-05-01T02:38:18.412Z,1.38
2023-05-01T02:43:24.793Z,1.40
2023-05-01T02:48:31.087Z,1.37
2023-05-01T02:53:36.987Z,1.39
2023-05-01T02:58:51.449Z,1.39
2023-05-01T03:03:56.336Z,1.38
2023-05-01T03:09:03.255Z,1.31
2023-05-01T03:14:07.115Z,1.24
2023-05-01T03:19:11.675Z,1.11
2023-05-01T03:24:17.483Z,1.00
2023-05-01T03:29:23.003Z,0.94
2023-05-01T03:34:28.653Z,1.06
2023-05-01T03:39:32.715Z,1.27
2023-05-01T03:45:03.760Z,1.36
2023-05-01T03:50:09.990Z,1.42
2023-05-01T03:55:18.006Z,1.40
2023-05-01T04:00:27.990Z,1.30
2023-05-01T04:05:34.609Z,1.36
2023-05-01T04:10:42.346Z,1.93
2023-05-01T04:15:47.479Z,3.51
2023-05-01T04:20:52.739Z,5.08
2023-05-01T04:25:58.588Z,6.51
2023-05-01T04:31:05.405Z,7.62
2023-05-01T04:36:10.396Z,8.30
2023-05-01T04:41:14.622Z,8.91
2023-05-01T04:46:22.480Z,9.14
2023-05-01T04:51:28.643Z,9.06
2023-05-01T04:56:33.212Z,8.47
2023-05-01T05:01:39.000Z,8.02
2023-05-01T05:06:44.902Z,7.10
2023-05-01T05:11:54.325Z,6.84
2023-05-01T05:17:00.724Z,6.43
2023-05-01T05:22:05.962Z,6.35
2023-05-01T05:27:16.437Z,6.34
2023-05-01T05:32:21.552Z,6.51
2023-05-01T05:37:26.524Z,6.72
2023-05-01T05:42:32.270Z,7.00
2023-05-01T05:47:41.297Z,7.29
2023-05-01T05:52:45.527Z,7.51
2023-05-01T05:57:50.205Z,7.68
2023-05-01T06:02:54.375Z,7.89
2023-05-01T06:08:01.860Z,8.15
2023-05-01T06:13:13.787Z,8.40
2023-05-01T06:18:24.078Z,8.68
2023-05-01T06:23:28.699Z,8.96
2023-05-01T06:28:55.321Z,9.20
2023-05-01T06:34:00.325Z,9.50
2023-05-01T06:39:24.263Z,9.74
2023-05-01T06:44:31.507Z,10.05
2023-05-01T06:49:39.384Z,10.29
2023-05-01T06:54:44.913Z,10.58
2023-05-01T06:59:49.626Z,10.81
2023-05-01T07:04:54.277Z,10.91
2023-05-01T07:09:59.526Z,11.21
2023-05-01T07:15:05.619Z,11.46
2023-05-01T07:20:11.893Z,11.63
2023-05-01T07:25:16.826Z,11.96
2023-05-01T07:30:21.798Z,12.21
2023-05-01T07:35:26.869Z,12.65
2023-05-01T07:40:34.716Z,12.97
2023-05-01T07:45:39.948Z,13.10
2023-05-01T07:50:47.271Z,13.41
2023-05-01T07:55:51.863Z,13.62
2023-05-01T08:00:57.102Z,13.76
2023-05-01T08:06:01.994Z,13.78
2023-05-01T08:11:06.175Z,13.83
2023-05-01T08:16:10.218Z,13.99
2023-05-01T08:21:14.203Z,14.16
2023-05-01T08:26:20.293Z,14.36
2023-05-01T08:31:26.363Z,14.49
2023-05-01T08:36:31.960Z,14.60
2023-05-01T08:41:37.486Z,14.64
2023-05-01T08:46:54.859Z,14.57
2023-05-01T08:51:59.576Z,14.56
2023-05-01T08:57:05.168Z,14.51
2023-05-01T09:02:11.092Z,14.67
2023-05-01T09:07:15.550Z,14.95
2023-05-01T09:12:31.080Z,15.14
2023-05-01T09:17:37.383Z,15.32
2023-05-01T09:22:41.735Z,15.26
2023-05-01T09:27:46.804Z,15.29
2023-05-01T09:33:15.447Z,15.41
2023-05-01T09:38:21.285Z,15.71
2023-05-01T09:43:27.757Z,15.65
2023-05-01T09:48:35.931Z,15.83
2023-05-01T09:53:42.323Z,15.84
2023-05-01T09:58:47.767Z,15.73
2023-05-01T10:03:56.996Z,15.59
2023-05-01T10:09:01.029Z,15.60
2023-05-01T10:14:09.825Z,16.01
2023-05-01T10:19:15.516Z,16.25
2023-05-01T10:24:20.718Z,16.45
2023-05-01T10:29:25.553Z,16.59
2023-05-01T10:34:31.684Z,16.74
2023-05-01T10:39:38.297Z,17.04
2023-05-01T10:44:43.161Z,17.10
2023-05-01T10:50:09.078Z,17.18
2023-05-01T10:55:37.322Z,17.33
2023-05-01T11:00:42.692Z,17.54
2023-05-01T11:06:17.246Z,17.64
2023-05-01T11:11:23.071Z,17.66
2023-05-01T11:16:46.805Z,17.81
2023-05-01T11:21:51.456Z,18.14
2023-05-01T11:26:56.348Z,18.17
2023-05-01T11:32:02.223Z,18.20
2023-05-01T11:37:06.677Z,18.28
2023-05-01T11:42:11.036Z,18.30
2023-05-01T11:47:15.260Z,18.16
2023-05-01T11:52:21.981Z,18.44
2023-05-01T11:57:28.934Z,18.57
2023-05-01T12:02:34.238Z,18.71
2023-05-01T12:07:38.506Z,19.00
2023-05-01T12:12:42.648Z,19.12
2023-05-01T12:17:48.514Z,19.27
2023-05-01T12:22:52.826Z,19.46
2023-05-01T12:27:56.785Z,19.58
2023-05-01T12:33:01.438Z,19.62
2023-05-01T12:38:16.482Z,19.77
2023-05-01T12:43:22.557Z,19.87
2023-05-01T12:48:26.621Z,19.76
2023-05-01T12:53:30.751Z,19.80
2023-05-01T12:58:38.621Z,19.90
2023-05-01T13:03:44.344Z,19.92
2023-05-01T13:08:48.418Z,19.93
2023-05-01T13:13:52.143Z,20.01
2023-05-01T13:18:56.024Z,20.27
2023-05-01T13:24:01.359Z,20.40
2023-05-01T13:29:06.115Z,20.51
2023-05-01T13:34:09.785Z,20.30
2023-05-01T13:39:21.256Z,20.33
2023-05-01T13:44:25.313Z,20.38
2023-05-01T13:49:29.109Z,20.23
2023-05-01T13:54:33.108Z,20.24
2023-05-01T13:59:44.984Z,20.25
2023-05-01T14:04:49.416Z,20.29
2023-05-01T14:09:55.962Z,20.40
2023-05-01T14:15:03.895Z,20.34
2023-05-01T14:20:09.133Z,20.25
2023-05-01T14:25:23.395Z,20.36
2023-05-01T14:30:33.946Z,20.56
2023-05-01T14:35:43.450Z,20.58
2023-05-01T14:40:48.197Z,20.70
2023-05-01T14:45:55.631Z,20.87
2023-05-01T14:50:59.870Z,21.03
2023-05-01T14:56:03.970Z,20.99
2023-05-01T15:01:07.922Z,20.90
2023-05-01T15:06:12.059Z,20.89
2023-05-01T15:11:17.171Z,20.73
2023-05-01T15:16:21.391Z,20.86
2023-05-01T15:21:25.315Z,20.91
2023-05-01T15:26:29.200Z,20.93
2023-05-01T15:31:33.133Z,20.94
2023-05-01T15:36:37.228Z,20.88
2023-05-01T15:41:41.447Z,20.76
2023-05-01T15:46:51.287Z,20.71
2023-05-01T15:51:55.552Z,20.61
2023-05-01T15:57:02.785Z,20.55
2023-05-01T16:02:09.256Z,20.55
2023-05-01T16:07:15.505Z,20.51
2023-05-01T16:12:24.687Z,20.48
2023-05-01T16:17:28.549Z,20.42
2023-05-01T16:22:33.197Z,20.46
2023-05-01T16:27:41.874Z,20.33
2023-05-01T16:32:46.615Z,20.19
2023-05-01T16:37:50.454Z,20.00
2023-05-01T16:42:56.499Z,19.88
2023-05-01T16:48:04.858Z,20.10
2023-05-01T16:53:12.054Z,21.59
2023-05-01T16:58:17.552Z,22.82
2023-05-01T17:03:21.490Z,23.60
2023-05-01T17:08:26.006Z,24.00
2023-05-01T17:13:30.244Z,24.58
2023-05-01T17:18:35.030Z,24.84
2023-05-01T17:23:42.353Z,24.71
2023-05-01T17:28:46.432Z,24.55
2023-05-01T17:33:51.064Z,23.87
2023-05-01T17:38:55.256Z,22.44
2023-05-01T17:43:59.731Z,21.26
2023-05-01T17:49:04.381Z,20.26
2023-05-01T17:54:10.969Z,19.52
2023-05-01T17:59:19.605Z,18.94
2023-05-01T18:04:25.234Z,18.34
2023-05-01T18:09:29.540Z,17.81
2023-05-01T18:14:34.583Z,17.33
2023-05-01T18:19:39.804Z,16.88
2023-05-01T18:24:44.780Z,16.51
2023-05-01T18:29:58.835Z,16.20
2023-05-01T18:35:05.687Z,15.98
2023-05-01T18:40:24.857Z,15.81
2023-05-01T18:45:31.992Z,15.66
2023-05-01T18:50:39.328Z,15.49
2023-05-01T18:55:49.866Z,15.32
2023-05-01T19:00:59.186Z,15.19
2023-05-01T19:06:05.677Z,15.10
2023-05-01T19:11:11.296Z,15.03
2023-05-01T19:16:18.196Z,15.02
2023-05-01T19:21:24.725Z,15.04
2023-05-01T19:26:30.739Z,15.01
2023-05-01T19:31:36.930Z,15.01
2023-05-01T19:36:46.339Z,14.88
2023-05-01T19:41:54.523Z,14.72
2023-05-01T19:47:02.240Z,14.52
2023-05-01T19:52:11.625Z,14.33
2023-05-01T19:57:19.236Z,14.11
2023-05-01T20:02:23.921Z,13.91
2023-05-01T20:07:29.991Z,13.74
2023-05-01T20:12:37.978Z,13.56
2023-05-01T20:17:44.119Z,13.40
2023-05-01T20:22:53.726Z,13.24
2023-05-01T20:27:57.728Z,13.08
2023-05-01T20:33:04.400Z,12.94
2023-05-01T20:38:08.349Z,12.82
2023-05-01T20:43:12.923Z,12.70
2023-05-01T20:48:19.014Z,12.58
2023-05-01T20:53:22.906Z,12.44
2023-05-01T20:58:26.980Z,12.36
2023-05-01T21:03:31.271Z,12.29
2023-05-01T21:08:35.811Z,12.26
2023-05-01T21:13:40.564Z,12.23
2023-05-01T21:18:45.493Z,12.18
2023-05-01T21:23:51.393Z,12.13
2023-05-01T21:28:56.559Z,12.06
2023-05-01T21:34:05.713Z,11.97
2023-05-01T21:39:12.480Z,11.91
2023-05-01T21:44:18.027Z,11.85
2023-05-01T21:49:40.062Z,11.82
2023-05-01T21:54:44.426Z,11.78
2023-05-01T21:59:49.157Z,11.74
2023-05-01T22:04:57.289Z,11.73
2023-05-01T22:10:02.263Z,11.73
2023-05-01T22:15:09.121Z,11.70
2023-05-01T22:20:14.124Z,11.67
2023-05-01T22:25:18.500Z,11.67
2023-05-01T22:30:23.101Z,11.64
2023-05-01T22:35:27.155Z,11.61
2023-05-01T22:40:31.902Z,11.47
2023-05-01T22:45:41.260Z,11.40
2023-05-01T22:50:45.603Z,11.39
2023-05-01T22:55:50.050Z,11.40
2023-05-01T23:00:54.050Z,11.43
2023-05-01T23:05:58.895Z,11.46
2023-05-01T23:11:03.410Z,11.42
2023-05-01T23:16:08.223Z,11.31
2023-05-01T23:21:18.368Z,11.19
2023-05-01T23:26:29.469Z,11.08
2023-05-01T23:31:34.845Z,10.96
2023-05-01T23:36:46.860Z,10.84
2023-05-01T23:41:51.138Z,10.74
2023-05-01T23:46:57.044Z,10.70
2023-05-01T23:52:02.168Z,10.75
2023-05-01T23:57:07.144Z,10.77
